sensor_id;sensor_type;location;lat;lon;timestamp;P1;durP1;ratioP1;P2;durP2;ratioP2
14799;SDS011;7491;57.750;11.970;2023-07-20T00:00:02;9.75;;;2.65;;
14799;SDS011;7491;57.750;11.970;2023-07-20T00:02:30;9.38;;;2.30;;
14799;SDS011;7491;57.750;11.970;2023-07-20T00:04:57;11.90;;;3.83;;
14799;SDS011;7491;57.750;11.970;2023-07-20T00:07:26;10.00;;;2.70;;
14799;SDS011;7491;57.750;11.970;2023-07-20T00:09:53;12.02;;;3.30;;
14799;SDS011;7491;57.750;11.970;2023-07-20T00:12:20;8.73;;;2.65;;
14799;SDS011;7491;57.750;11.970;2023-07-20T00:14:47;9.27;;;3.13;;
14799;SDS011;7491;57.750;11.970;2023-07-20T00:17:14;7.50;;;2.47;;
14799;SDS011;7491;57.750;11.970;2023-07-20T00:19:41;11.55;;;3.03;;
14799;SDS011;7491;57.750;11.970;2023-07-20T00:22:08;8.30;;;1.90;;
14799;SDS011;7491;57.750;11.970;2023-07-20T00:24:36;11.98;;;2.78;;
14799;SDS011;7491;57.750;11.970;2023-07-20T00:27:03;11.50;;;2.63;;
14799;SDS011;7491;57.750;11.970;2023-07-20T00:29:30;9.07;;;2.67;;
14799;SDS011;7491;57.750;11.970;2023-07-20T00:31:57;7.75;;;2.28;;
14799;SDS011;7491;57.750;11.970;2023-07-20T00:34:25;10.98;;;2.17;;
14799;SDS011;7491;57.750;11.970;2023-07-20T00:36:52;8.73;;;2.67;;
14799;SDS011;7491;57.750;11.970;2023-07-20T00:39:18;12.70;;;2.92;;
14799;SDS011;7491;57.750;11.970;2023-07-20T00:41:47;9.43;;;2.63;;
14799;SDS011;7491;57.750;11.970;2023-07-20T00:44:14;11.35;;;2.45;;
14799;SDS011;7491;57.750;11.970;2023-07-20T00:46:41;11.18;;;2.60;;
14799;SDS011;7491;57.750;11.970;2023-07-20T00:49:09;10.00;;;2.25;;
14799;SDS011;7491;57.750;11.970;2023-07-20T00:51:36;12.52;;;2.60;;
14799;SDS011;7491;57.750;11.970;2023-07-20T00:54:02;10.27;;;2.17;;
14799;SDS011;7491;57.750;11.970;2023-07-20T00:56:30;9.75;;;2.47;;
14799;SDS011;7491;57.750;11.970;2023-07-20T00:58:58;8.50;;;2.35;;
14799;SDS011;7491;57.750;11.970;2023-07-20T01:01:25;15.00;;;2.47;;
14799;SDS011;7491;57.750;11.970;2023-07-20T01:03:52;9.20;;;2.45;;
14799;SDS011;7491;57.750;11.970;2023-07-20T01:06:23;5.28;;;1.90;;
14799;SDS011;7491;57.750;11.970;2023-07-20T01:08:57;8.52;;;2.17;;
14799;SDS011;7491;57.750;11.970;2023-07-20T01:11:34;8.15;;;1.92;;
14799;SDS011;7491;57.750;11.970;2023-07-20T01:14:08;12.48;;;2.78;;
14799;SDS011;7491;57.750;11.970;2023-07-20T01:16:35;7.03;;;2.03;;
14799;SDS011;7491;57.750;11.970;2023-07-20T01:19:02;7.53;;;1.90;;
14799;SDS011;7491;57.750;11.970;2023-07-20T01:21:31;9.43;;;2.50;;
14799;SDS011;7491;57.750;11.970;2023-07-20T01:33:02;8.02;;;2.63;;
14799;SDS011;7491;57.750;11.970;2023-07-20T01:35:30;7.05;;;2.33;;
14799;SDS011;7491;57.750;11.970;2023-07-20T01:37:59;5.43;;;1.92;;
14799;SDS011;7491;57.750;11.970;2023-07-20T01:40:29;9.85;;;2.45;;
14799;SDS011;7491;57.750;11.970;2023-07-20T01:43:10;12.38;;;2.25;;
14799;SDS011;7491;57.750;11.970;2023-07-20T01:45:38;8.80;;;2.03;;
14799;SDS011;7491;57.750;11.970;2023-07-20T01:48:07;6.45;;;2.50;;
14799;SDS011;7491;57.750;11.970;2023-07-20T01:50:34;8.65;;;2.35;;
14799;SDS011;7491;57.750;11.970;2023-07-20T01:53:00;10.48;;;2.13;;
14799;SDS011;7491;57.750;11.970;2023-07-20T01:55:27;9.32;;;2.00;;
14799;SDS011;7491;57.750;11.970;2023-07-20T01:57:54;11.77;;;2.47;;
14799;SDS011;7491;57.750;11.970;2023-07-20T02:00:22;7.57;;;1.98;;
14799;SDS011;7491;57.750;11.970;2023-07-20T02:02:49;11.68;;;2.35;;
14799;SDS011;7491;57.750;11.970;2023-07-20T02:05:18;9.30;;;1.65;;
14799;SDS011;7491;57.750;11.970;2023-07-20T02:07:44;5.80;;;2.00;;
14799;SDS011;7491;57.750;11.970;2023-07-20T02:10:11;7.30;;;1.85;;
14799;SDS011;7491;57.750;11.970;2023-07-20T02:12:38;9.65;;;2.08;;
14799;SDS011;7491;57.750;11.970;2023-07-20T02:15:05;17.00;;;2.30;;
14799;SDS011;7491;57.750;11.970;2023-07-20T02:17:33;7.13;;;2.55;;
14799;SDS011;7491;57.750;11.970;2023-07-20T02:20:00;11.98;;;2.45;;
14799;SDS011;7491;57.750;11.970;2023-07-20T02:22:29;8.50;;;2.00;;
14799;SDS011;7491;57.750;11.970;2023-07-20T02:24:56;7.97;;;1.70;;
14799;SDS011;7491;57.750;11.970;2023-07-20T02:27:23;12.00;;;1.92;;
14799;SDS011;7491;57.750;11.970;2023-07-20T02:29:50;10.73;;;2.20;;
14799;SDS011;7491;57.750;11.970;2023-07-20T02:32:17;7.85;;;1.65;;
14799;SDS011;7491;57.750;11.970;2023-07-20T02:34:44;8.23;;;2.10;;
14799;SDS011;7491;57.750;11.970;2023-07-20T02:37:10;7.25;;;2.40;;
14799;SDS011;7491;57.750;11.970;2023-07-20T02:39:39;13.15;;;2.50;;
14799;SDS011;7491;57.750;11.970;2023-07-20T02:42:06;9.63;;;2.47;;
14799;SDS011;7491;57.750;11.970;2023-07-20T02:44:33;9.68;;;2.08;;
14799;SDS011;7491;57.750;11.970;2023-07-20T02:47:00;10.52;;;2.17;;
14799;SDS011;7491;57.750;11.970;2023-07-20T02:49:27;8.82;;;1.75;;
14799;SDS011;7491;57.750;11.970;2023-07-20T02:51:54;8.63;;;1.85;;
14799;SDS011;7491;57.750;11.970;2023-07-20T02:54:23;9.07;;;2.28;;
14799;SDS011;7491;57.750;11.970;2023-07-20T02:56:52;8.10;;;2.05;;
14799;SDS011;7491;57.750;11.970;2023-07-20T02:59:19;10.43;;;1.92;;
14799;SDS011;7491;57.750;11.970;2023-07-20T03:01:46;5.93;;;1.75;;
14799;SDS011;7491;57.750;11.970;2023-07-20T03:04:13;8.18;;;2.25;;
14799;SDS011;7491;57.750;11.970;2023-07-20T03:06:41;5.80;;;1.88;;
14799;SDS011;7491;57.750;11.970;2023-07-20T03:09:08;7.93;;;1.58;;
14799;SDS011;7491;57.750;11.970;2023-07-20T03:11:35;11.18;;;1.90;;
14799;SDS011;7491;57.750;11.970;2023-07-20T03:14:03;13.38;;;2.55;;
14799;SDS011;7491;57.750;11.970;2023-07-20T03:16:30;6.70;;;2.10;;
14799;SDS011;7491;57.750;11.970;2023-07-20T03:18:58;5.25;;;1.55;;
14799;SDS011;7491;57.750;11.970;2023-07-20T03:21:25;5.45;;;1.60;;
14799;SDS011;7491;57.750;11.970;2023-07-20T03:23:52;8.35;;;2.00;;
14799;SDS011;7491;57.750;11.970;2023-07-20T03:26:19;12.27;;;2.38;;
14799;SDS011;7491;57.750;11.970;2023-07-20T03:28:46;5.88;;;1.63;;
14799;SDS011;7491;57.750;11.970;2023-07-20T03:31:15;6.13;;;1.50;;
14799;SDS011;7491;57.750;11.970;2023-07-20T03:33:42;5.57;;;1.58;;
14799;SDS011;7491;57.750;11.970;2023-07-20T03:36:09;7.72;;;1.45;;
14799;SDS011;7491;57.750;11.970;2023-07-20T03:38:35;7.10;;;1.85;;
14799;SDS011;7491;57.750;11.970;2023-07-20T03:41:02;5.50;;;1.63;;
14799;SDS011;7491;57.750;11.970;2023-07-20T03:43:29;3.72;;;1.50;;
14799;SDS011;7491;57.750;11.970;2023-07-20T03:45:56;7.70;;;1.23;;
14799;SDS011;7491;57.750;11.970;2023-07-20T03:48:25;8.68;;;2.03;;
14799;SDS011;7491;57.750;11.970;2023-07-20T03:50:52;4.53;;;1.20;;
14799;SDS011;7491;57.750;11.970;2023-07-20T03:53:20;3.38;;;1.20;;
14799;SDS011;7491;57.750;11.970;2023-07-20T03:55:47;4.63;;;1.50;;
14799;SDS011;7491;57.750;11.970;2023-07-20T03:58:14;4.93;;;1.40;;
14799;SDS011;7491;57.750;11.970;2023-07-20T04:00:43;3.03;;;0.98;;
14799;SDS011;7491;57.750;11.970;2023-07-20T04:03:11;8.45;;;1.30;;
14799;SDS011;7491;57.750;11.970;2023-07-20T04:05:39;2.75;;;1.38;;
14799;SDS011;7491;57.750;11.970;2023-07-20T04:08:06;5.40;;;1.33;;
14799;SDS011;7491;57.750;11.970;2023-07-20T04:10:33;6.95;;;1.45;;
14799;SDS011;7491;57.750;11.970;2023-07-20T04:13:00;9.40;;;1.73;;
14799;SDS011;7491;57.750;11.970;2023-07-20T04:15:27;8.77;;;1.27;;
14799;SDS011;7491;57.750;11.970;2023-07-20T04:17:54;4.68;;;1.45;;
14799;SDS011;7491;57.750;11.970;2023-07-20T04:20:21;5.32;;;1.30;;
14799;SDS011;7491;57.750;11.970;2023-07-20T04:22:50;2.92;;;1.25;;
14799;SDS011;7491;57.750;11.970;2023-07-20T04:25:17;5.25;;;1.67;;
14799;SDS011;7491;57.750;11.970;2023-07-20T04:27:44;5.38;;;1.30;;
14799;SDS011;7491;57.750;11.970;2023-07-20T04:30:11;7.03;;;1.15;;
14799;SDS011;7491;57.750;11.970;2023-07-20T04:32:40;7.28;;;1.27;;
14799;SDS011;7491;57.750;11.970;2023-07-20T04:35:09;6.32;;;1.23;;
14799;SDS011;7491;57.750;11.970;2023-07-20T04:37:36;4.90;;;1.13;;
14799;SDS011;7491;57.750;11.970;2023-07-20T04:40:05;6.20;;;1.55;;
14799;SDS011;7491;57.750;11.970;2023-07-20T04:42:33;4.88;;;0.98;;
14799;SDS011;7491;57.750;11.970;2023-07-20T04:45:00;4.95;;;1.10;;
14799;SDS011;7491;57.750;11.970;2023-07-20T04:47:26;5.82;;;1.25;;
14799;SDS011;7491;57.750;11.970;2023-07-20T04:49:53;6.05;;;1.10;;
14799;SDS011;7491;57.750;11.970;2023-07-20T04:52:20;6.45;;;1.20;;
14799;SDS011;7491;57.750;11.970;2023-07-20T04:54:48;5.38;;;1.20;;
14799;SDS011;7491;57.750;11.970;2023-07-20T04:57:16;3.87;;;1.17;;
14799;SDS011;7491;57.750;11.970;2023-07-20T04:59:43;3.88;;;1.50;;
14799;SDS011;7491;57.750;11.970;2023-07-20T05:02:09;2.88;;;1.35;;
14799;SDS011;7491;57.750;11.970;2023-07-20T05:04:36;5.50;;;1.38;;
14799;SDS011;7491;57.750;11.970;2023-07-20T05:07:03;6.30;;;1.35;;
14799;SDS011;7491;57.750;11.970;2023-07-20T05:09:31;3.25;;;1.08;;
14799;SDS011;7491;57.750;11.970;2023-07-20T05:11:58;7.03;;;1.20;;
14799;SDS011;7491;57.750;11.970;2023-07-20T05:14:26;8.50;;;1.40;;
14799;SDS011;7491;57.750;11.970;2023-07-20T05:16:53;6.90;;;1.45;;
14799;SDS011;7491;57.750;11.970;2023-07-20T05:19:20;8.77;;;1.45;;
14799;SDS011;7491;57.750;11.970;2023-07-20T05:21:47;3.53;;;0.98;;
14799;SDS011;7491;57.750;11.970;2023-07-20T05:24:14;5.63;;;1.20;;
14799;SDS011;7491;57.750;11.970;2023-07-20T05:26:41;4.10;;;1.42;;
14799;SDS011;7491;57.750;11.970;2023-07-20T05:29:08;2.08;;;0.80;;
14799;SDS011;7491;57.750;11.970;2023-07-20T05:31:36;4.57;;;1.52;;
14799;SDS011;7491;57.750;11.970;2023-07-20T05:34:03;5.25;;;1.17;;
14799;SDS011;7491;57.750;11.970;2023-07-20T05:36:30;2.97;;;1.40;;
14799;SDS011;7491;57.750;11.970;2023-07-20T05:38:57;6.00;;;1.40;;
14799;SDS011;7491;57.750;11.970;2023-07-20T05:41:24;5.13;;;1.00;;
14799;SDS011;7491;57.750;11.970;2023-07-20T05:43:51;4.00;;;1.10;;
14799;SDS011;7491;57.750;11.970;2023-07-20T05:46:18;5.70;;;0.98;;
14799;SDS011;7491;57.750;11.970;2023-07-20T05:48:46;7.53;;;1.42;;
14799;SDS011;7491;57.750;11.970;2023-07-20T05:51:13;7.57;;;1.40;;
14799;SDS011;7491;57.750;11.970;2023-07-20T05:53:40;3.72;;;1.27;;
14799;SDS011;7491;57.750;11.970;2023-07-20T05:56:07;5.78;;;1.15;;
14799;SDS011;7491;57.750;11.970;2023-07-20T05:58:35;6.13;;;1.30;;
14799;SDS011;7491;57.750;11.970;2023-07-20T06:01:03;7.60;;;2.03;;
14799;SDS011;7491;57.750;11.970;2023-07-20T06:03:30;4.88;;;1.20;;
14799;SDS011;7491;57.750;11.970;2023-07-20T06:06:00;8.32;;;2.13;;
14799;SDS011;7491;57.750;11.970;2023-07-20T06:08:27;7.20;;;1.20;;
14799;SDS011;7491;57.750;11.970;2023-07-20T06:10:54;6.10;;;1.08;;
14799;SDS011;7491;57.750;11.970;2023-07-20T06:13:20;5.82;;;1.83;;
14799;SDS011;7491;57.750;11.970;2023-07-20T06:15:47;9.32;;;2.75;;
14799;SDS011;7491;57.750;11.970;2023-07-20T06:18:14;7.20;;;1.70;;
14799;SDS011;7491;57.750;11.970;2023-07-20T06:20:41;3.83;;;1.10;;
14799;SDS011;7491;57.750;11.970;2023-07-20T06:23:09;10.45;;;1.88;;
14799;SDS011;7491;57.750;11.970;2023-07-20T06:25:36;3.83;;;1.00;;
14799;SDS011;7491;57.750;11.970;2023-07-20T06:28:02;6.95;;;1.33;;
14799;SDS011;7491;57.750;11.970;2023-07-20T06:30:30;3.88;;;1.10;;
14799;SDS011;7491;57.750;11.970;2023-07-20T06:33:00;3.55;;;1.30;;
14799;SDS011;7491;57.750;11.970;2023-07-20T06:35:27;2.45;;;0.82;;
14799;SDS011;7491;57.750;11.970;2023-07-20T06:37:54;5.35;;;1.10;;
14799;SDS011;7491;57.750;11.970;2023-07-20T06:40:22;5.97;;;1.10;;
14799;SDS011;7491;57.750;11.970;2023-07-20T06:42:49;6.15;;;1.40;;
14799;SDS011;7491;57.750;11.970;2023-07-20T06:45:15;4.28;;;1.08;;
14799;SDS011;7491;57.750;11.970;2023-07-20T06:47:42;4.63;;;1.10;;
14799;SDS011;7491;57.750;11.970;2023-07-20T06:50:09;2.75;;;1.00;;
14799;SDS011;7491;57.750;11.970;2023-07-20T06:52:36;5.22;;;1.40;;
14799;SDS011;7491;57.750;11.970;2023-07-20T06:55:05;6.28;;;1.33;;
14799;SDS011;7491;57.750;11.970;2023-07-20T06:57:34;3.35;;;1.05;;
14799;SDS011;7491;57.750;11.970;2023-07-20T07:00:01;7.60;;;1.15;;
14799;SDS011;7491;57.750;11.970;2023-07-20T07:02:29;5.85;;;1.45;;
14799;SDS011;7491;57.750;11.970;2023-07-20T07:04:56;4.18;;;1.25;;
14799;SDS011;7491;57.750;11.970;2023-07-20T07:07:23;2.20;;;0.80;;
14799;SDS011;7491;57.750;11.970;2023-07-20T07:09:50;4.32;;;1.10;;
14799;SDS011;7491;57.750;11.970;2023-07-20T07:12:17;2.85;;;0.65;;
14799;SDS011;7491;57.750;11.970;2023-07-20T07:14:45;4.70;;;1.05;;
14799;SDS011;7491;57.750;11.970;2023-07-20T07:17:12;6.35;;;1.10;;
14799;SDS011;7491;57.750;11.970;2023-07-20T07:19:39;3.70;;;1.00;;
14799;SDS011;7491;57.750;11.970;2023-07-20T07:22:07;2.90;;;0.93;;
14799;SDS011;7491;57.750;11.970;2023-07-20T07:24:34;21.17;;;4.47;;
14799;SDS011;7491;57.750;11.970;2023-07-20T07:27:01;7.57;;;1.38;;
14799;SDS011;7491;57.750;11.970;2023-07-20T07:29:29;2.63;;;0.73;;
14799;SDS011;7491;57.750;11.970;2023-07-20T07:31:57;4.05;;;0.95;;
14799;SDS011;7491;57.750;11.970;2023-07-20T07:34:24;4.80;;;1.10;;
14799;SDS011;7491;57.750;11.970;2023-07-20T07:36:50;3.30;;;0.85;;
14799;SDS011;7491;57.750;11.970;2023-07-20T07:39:17;8.32;;;1.55;;
14799;SDS011;7491;57.750;11.970;2023-07-20T07:41:44;2.65;;;1.00;;
14799;SDS011;7491;57.750;11.970;2023-07-20T07:44:11;4.80;;;0.90;;
14799;SDS011;7491;57.750;11.970;2023-07-20T07:46:38;1.73;;;1.00;;
14799;SDS011;7491;57.750;11.970;2023-07-20T07:49:08;6.65;;;1.10;;
14799;SDS011;7491;57.750;11.970;2023-07-20T07:51:35;3.72;;;1.25;;
14799;SDS011;7491;57.750;11.970;2023-07-20T07:54:01;6.97;;;1.00;;
14799;SDS011;7491;57.750;11.970;2023-07-20T07:56:28;3.42;;;1.02;;
14799;SDS011;7491;57.750;11.970;2023-07-20T07:58:55;4.00;;;0.90;;
14799;SDS011;7491;57.750;11.970;2023-07-20T08:01:22;3.15;;;0.80;;
14799;SDS011;7491;57.750;11.970;2023-07-20T08:03:49;8.18;;;1.08;;
14799;SDS011;7491;57.750;11.970;2023-07-20T08:06:17;3.13;;;0.80;;
14799;SDS011;7491;57.750;11.970;2023-07-20T08:08:44;2.60;;;1.20;;
14799;SDS011;7491;57.750;11.970;2023-07-20T08:11:11;4.43;;;1.02;;
14799;SDS011;7491;57.750;11.970;2023-07-20T08:13:38;4.78;;;1.10;;
14799;SDS011;7491;57.750;11.970;2023-07-20T08:16:04;5.75;;;1.10;;
14799;SDS011;7491;57.750;11.970;2023-07-20T08:18:31;5.40;;;1.00;;
14799;SDS011;7491;57.750;11.970;2023-07-20T08:20:58;4.38;;;1.00;;
14799;SDS011;7491;57.750;11.970;2023-07-20T08:23:26;5.25;;;0.77;;
14799;SDS011;7491;57.750;11.970;2023-07-20T08:25:53;4.93;;;0.82;;
14799;SDS011;7491;57.750;11.970;2023-07-20T08:28:20;1.38;;;0.70;;
14799;SDS011;7491;57.750;11.970;2023-07-20T08:30:48;4.47;;;1.20;;
14799;SDS011;7491;57.750;11.970;2023-07-20T08:33:15;3.40;;;0.90;;
14799;SDS011;7491;57.750;11.970;2023-07-20T08:35:44;6.85;;;1.00;;
14799;SDS011;7491;57.750;11.970;2023-07-20T08:38:11;3.80;;;1.00;;
14799;SDS011;7491;57.750;11.970;2023-07-20T08:40:40;4.38;;;0.95;;
14799;SDS011;7491;57.750;11.970;2023-07-20T08:43:09;4.38;;;0.90;;
14799;SDS011;7491;57.750;11.970;2023-07-20T08:45:37;6.85;;;0.75;;
14799;SDS011;7491;57.750;11.970;2023-07-20T08:48:05;3.38;;;0.93;;
14799;SDS011;7491;57.750;11.970;2023-07-20T08:50:33;3.90;;;0.80;;
14799;SDS011;7491;57.750;11.970;2023-07-20T08:53:01;2.83;;;0.70;;
14799;SDS011;7491;57.750;11.970;2023-07-20T08:55:29;4.22;;;0.95;;
14799;SDS011;7491;57.750;11.970;2023-07-20T08:57:58;3.72;;;0.93;;
14799;SDS011;7491;57.750;11.970;2023-07-20T09:00:26;3.22;;;1.05;;
14799;SDS011;7491;57.750;11.970;2023-07-20T09:02:54;4.65;;;1.40;;
14799;SDS011;7491;57.750;11.970;2023-07-20T09:05:22;3.72;;;1.10;;
14799;SDS011;7491;57.750;11.970;2023-07-20T09:07:50;2.70;;;0.80;;
14799;SDS011;7491;57.750;11.970;2023-07-20T09:10:17;4.57;;;1.02;;
14799;SDS011;7491;57.750;11.970;2023-07-20T09:12:46;3.55;;;0.80;;
14799;SDS011;7491;57.750;11.970;2023-07-20T09:15:14;3.50;;;0.93;;
14799;SDS011;7491;57.750;11.970;2023-07-20T09:17:45;1.63;;;0.75;;
14799;SDS011;7491;57.750;11.970;2023-07-20T09:20:12;5.15;;;0.90;;
14799;SDS011;7491;57.750;11.970;2023-07-20T09:22:42;4.45;;;0.80;;
14799;SDS011;7491;57.750;11.970;2023-07-20T09:25:11;4.13;;;0.73;;
14799;SDS011;7491;57.750;11.970;2023-07-20T09:27:39;4.10;;;0.80;;
14799;SDS011;7491;57.750;11.970;2023-07-20T09:30:07;4.32;;;0.70;;
14799;SDS011;7491;57.750;11.970;2023-07-20T09:32:42;4.13;;;0.90;;
14799;SDS011;7491;57.750;11.970;2023-07-20T09:35:13;6.85;;;0.85;;
14799;SDS011;7491;57.750;11.970;2023-07-20T09:37:45;2.72;;;0.90;;
14799;SDS011;7491;57.750;11.970;2023-07-20T09:40:15;3.42;;;0.80;;
14799;SDS011;7491;57.750;11.970;2023-07-20T09:42:43;2.15;;;0.80;;
14799;SDS011;7491;57.750;11.970;2023-07-20T09:45:10;6.22;;;0.63;;
14799;SDS011;7491;57.750;11.970;2023-07-20T09:47:37;3.83;;;0.70;;
14799;SDS011;7491;57.750;11.970;2023-07-20T09:50:06;4.93;;;0.98;;
14799;SDS011;7491;57.750;11.970;2023-07-20T09:52:37;3.47;;;0.70;;
14799;SDS011;7491;57.750;11.970;2023-07-20T09:55:06;2.55;;;1.02;;
14799;SDS011;7491;57.750;11.970;2023-07-20T09:57:33;4.30;;;1.08;;
14799;SDS011;7491;57.750;11.970;2023-07-20T10:00:01;2.90;;;0.90;;
14799;SDS011;7491;57.750;11.970;2023-07-20T10:02:31;3.03;;;0.93;;
14799;SDS011;7491;57.750;11.970;2023-07-20T10:05:01;3.25;;;0.65;;
14799;SDS011;7491;57.750;11.970;2023-07-20T10:07:30;3.60;;;0.90;;
14799;SDS011;7491;57.750;11.970;2023-07-20T10:09:59;3.00;;;0.90;;
14799;SDS011;7491;57.750;11.970;2023-07-20T10:12:28;2.15;;;0.93;;
14799;SDS011;7491;57.750;11.970;2023-07-20T10:14:58;3.38;;;0.63;;
14799;SDS011;7491;57.750;11.970;2023-07-20T10:17:36;2.22;;;0.55;;
14799;SDS011;7491;57.750;11.970;2023-07-20T10:20:06;2.40;;;0.60;;
14799;SDS011;7491;57.750;11.970;2023-07-20T10:22:40;2.42;;;0.73;;
14799;SDS011;7491;57.750;11.970;2023-07-20T10:25:07;3.75;;;1.13;;
14799;SDS011;7491;57.750;11.970;2023-07-20T10:27:36;5.15;;;1.08;;
14799;SDS011;7491;57.750;11.970;2023-07-20T10:30:05;1.35;;;0.65;;
14799;SDS011;7491;57.750;11.970;2023-07-20T10:32:33;5.35;;;1.10;;
14799;SDS011;7491;57.750;11.970;2023-07-20T10:35:00;3.90;;;1.00;;
14799;SDS011;7491;57.750;11.970;2023-07-20T10:37:48;4.22;;;0.70;;
14799;SDS011;7491;57.750;11.970;2023-07-20T10:40:32;1.25;;;0.57;;
14799;SDS011;7491;57.750;11.970;2023-07-20T10:43:01;2.85;;;0.57;;
14799;SDS011;7491;57.750;11.970;2023-07-20T10:45:33;1.92;;;0.60;;
14799;SDS011;7491;57.750;11.970;2023-07-20T10:48:32;3.42;;;0.80;;
14799;SDS011;7491;57.750;11.970;2023-07-20T10:51:09;4.35;;;0.57;;
14799;SDS011;7491;57.750;11.970;2023-07-20T10:53:38;2.53;;;0.90;;
14799;SDS011;7491;57.750;11.970;2023-07-20T10:56:08;3.85;;;1.02;;
14799;SDS011;7491;57.750;11.970;2023-07-20T10:58:38;6.40;;;0.73;;
14799;SDS011;7491;57.750;11.970;2023-07-20T11:01:06;4.75;;;0.98;;
14799;SDS011;7491;57.750;11.970;2023-07-20T11:03:34;2.38;;;0.75;;
14799;SDS011;7491;57.750;11.970;2023-07-20T11:09:07;3.08;;;0.80;;
14799;SDS011;7491;57.750;11.970;2023-07-20T11:11:40;4.07;;;0.65;;
14799;SDS011;7491;57.750;11.970;2023-07-20T11:14:08;2.55;;;0.93;;
14799;SDS011;7491;57.750;11.970;2023-07-20T11:16:39;3.30;;;1.00;;
14799;SDS011;7491;57.750;11.970;2023-07-20T11:19:17;3.20;;;0.68;;
14799;SDS011;7491;57.750;11.970;2023-07-20T11:21:45;4.60;;;0.98;;
14799;SDS011;7491;57.750;11.970;2023-07-20T11:24:13;4.28;;;1.15;;
14799;SDS011;7491;57.750;11.970;2023-07-20T11:26:40;1.92;;;0.93;;
14799;SDS011;7491;57.750;11.970;2023-07-20T11:29:08;2.67;;;0.65;;
14799;SDS011;7491;57.750;11.970;2023-07-20T11:31:35;2.00;;;0.60;;
14799;SDS011;7491;57.750;11.970;2023-07-20T11:34:03;1.55;;;0.70;;
14799;SDS011;7491;57.750;11.970;2023-07-20T11:36:31;2.72;;;0.90;;
14799;SDS011;7491;57.750;11.970;2023-07-20T11:38:58;3.70;;;1.30;;
14799;SDS011;7491;57.750;11.970;2023-07-20T11:41:25;4.65;;;0.88;;
14799;SDS011;7491;57.750;11.970;2023-07-20T11:43:52;3.35;;;0.85;;
14799;SDS011;7491;57.750;11.970;2023-07-20T11:46:18;4.18;;;0.73;;
14799;SDS011;7491;57.750;11.970;2023-07-20T11:48:45;2.28;;;0.90;;
14799;SDS011;7491;57.750;11.970;2023-07-20T11:51:15;3.97;;;1.30;;
14799;SDS011;7491;57.750;11.970;2023-07-20T11:53:44;4.85;;;1.00;;
14799;SDS011;7491;57.750;11.970;2023-07-20T11:56:13;1.98;;;0.50;;
14799;SDS011;7491;57.750;11.970;2023-07-20T11:58:41;2.03;;;0.73;;
14799;SDS011;7491;57.750;11.970;2023-07-20T12:01:09;3.55;;;0.85;;
14799;SDS011;7491;57.750;11.970;2023-07-20T12:03:36;8.35;;;1.00;;
14799;SDS011;7491;57.750;11.970;2023-07-20T12:06:06;2.83;;;0.75;;
14799;SDS011;7491;57.750;11.970;2023-07-20T12:08:33;2.67;;;0.90;;
14799;SDS011;7491;57.750;11.970;2023-07-20T12:11:01;3.85;;;0.90;;
14799;SDS011;7491;57.750;11.970;2023-07-20T12:13:38;2.38;;;0.82;;
14799;SDS011;7491;57.750;11.970;2023-07-20T12:16:09;6.72;;;1.13;;
14799;SDS011;7491;57.750;11.970;2023-07-20T12:18:37;4.60;;;0.98;;
14799;SDS011;7491;57.750;11.970;2023-07-20T12:21:05;6.43;;;1.02;;
14799;SDS011;7491;57.750;11.970;2023-07-20T12:23:34;4.78;;;0.77;;
14799;SDS011;7491;57.750;11.970;2023-07-20T12:26:04;3.30;;;0.95;;
14799;SDS011;7491;57.750;11.970;2023-07-20T12:28:32;6.22;;;1.00;;
14799;SDS011;7491;57.750;11.970;2023-07-20T12:30:59;5.00;;;0.85;;
14799;SDS011;7491;57.750;11.970;2023-07-20T12:33:26;2.83;;;0.70;;
14799;SDS011;7491;57.750;11.970;2023-07-20T12:35:52;4.25;;;0.90;;
14799;SDS011;7491;57.750;11.970;2023-07-20T12:38:21;3.88;;;0.90;;
14799;SDS011;7491;57.750;11.970;2023-07-20T12:40:48;5.22;;;0.80;;
14799;SDS011;7491;57.750;11.970;2023-07-20T12:43:16;4.47;;;1.33;;
14799;SDS011;7491;57.750;11.970;2023-07-20T12:45:43;3.53;;;1.17;;
14799;SDS011;7491;57.750;11.970;2023-07-20T12:48:09;4.28;;;1.30;;
14799;SDS011;7491;57.750;11.970;2023-07-20T12:50:36;3.05;;;1.02;;
14799;SDS011;7491;57.750;11.970;2023-07-20T12:53:03;6.22;;;1.30;;
14799;SDS011;7491;57.750;11.970;2023-07-20T12:55:30;4.97;;;1.40;;
14799;SDS011;7491;57.750;11.970;2023-07-20T12:57:56;5.82;;;1.00;;
14799;SDS011;7491;57.750;11.970;2023-07-20T13:00:24;7.00;;;1.52;;
14799;SDS011;7491;57.750;11.970;2023-07-20T13:02:51;3.75;;;1.10;;
14799;SDS011;7491;57.750;11.970;2023-07-20T13:05:18;3.33;;;1.27;;
14799;SDS011;7491;57.750;11.970;2023-07-20T13:07:45;5.22;;;1.40;;
14799;SDS011;7491;57.750;11.970;2023-07-20T13:10:12;8.68;;;1.42;;
14799;SDS011;7491;57.750;11.970;2023-07-20T13:12:38;6.10;;;1.67;;
14799;SDS011;7491;57.750;11.970;2023-07-20T13:15:06;6.38;;;1.30;;
14799;SDS011;7491;57.750;11.970;2023-07-20T13:17:36;8.75;;;1.55;;
14799;SDS011;7491;57.750;11.970;2023-07-20T13:20:04;8.00;;;1.00;;
14799;SDS011;7491;57.750;11.970;2023-07-20T13:22:32;6.00;;;1.52;;
14799;SDS011;7491;57.750;11.970;2023-07-20T13:25:00;10.18;;;1.70;;
14799;SDS011;7491;57.750;11.970;2023-07-20T13:27:27;9.65;;;1.50;;
14799;SDS011;7491;57.750;11.970;2023-07-20T13:29:53;6.00;;;1.30;;
14799;SDS011;7491;57.750;11.970;2023-07-20T13:32:20;4.85;;;1.13;;
14799;SDS011;7491;57.750;11.970;2023-07-20T13:34:50;6.50;;;1.58;;
14799;SDS011;7491;57.750;11.970;2023-07-20T13:37:16;4.43;;;1.35;;
14799;SDS011;7491;57.750;11.970;2023-07-20T13:39:43;6.30;;;1.27;;
14799;SDS011;7491;57.750;11.970;2023-07-20T13:42:10;5.15;;;1.17;;
14799;SDS011;7491;57.750;11.970;2023-07-20T13:44:37;5.60;;;1.70;;
14799;SDS011;7491;57.750;11.970;2023-07-20T13:47:04;4.57;;;1.40;;
14799;SDS011;7491;57.750;11.970;2023-07-20T13:49:32;10.30;;;1.30;;
14799;SDS011;7491;57.750;11.970;2023-07-20T13:52:00;7.13;;;1.40;;
14799;SDS011;7491;57.750;11.970;2023-07-20T13:54:27;4.72;;;1.35;;
14799;SDS011;7491;57.750;11.970;2023-07-20T13:56:54;6.28;;;1.48;;
14799;SDS011;7491;57.750;11.970;2023-07-20T13:59:20;10.52;;;1.92;;
14799;SDS011;7491;57.750;11.970;2023-07-20T14:01:47;8.18;;;1.58;;
14799;SDS011;7491;57.750;11.970;2023-07-20T14:04:14;12.48;;;1.92;;
14799;SDS011;7491;57.750;11.970;2023-07-20T14:06:42;9.43;;;1.80;;
14799;SDS011;7491;57.750;11.970;2023-07-20T14:09:10;11.40;;;1.83;;
14799;SDS011;7491;57.750;11.970;2023-07-20T14:11:37;9.52;;;2.17;;
14799;SDS011;7491;57.750;11.970;2023-07-20T14:14:04;7.95;;;1.70;;
14799;SDS011;7491;57.750;11.970;2023-07-20T14:16:31;10.90;;;1.92;;
14799;SDS011;7491;57.750;11.970;2023-07-20T14:18:58;10.18;;;1.75;;
14799;SDS011;7491;57.750;11.970;2023-07-20T14:21:25;6.78;;;1.83;;
14799;SDS011;7491;57.750;11.970;2023-07-20T14:23:52;4.80;;;1.23;;
14799;SDS011;7491;57.750;11.970;2023-07-20T14:26:20;7.60;;;1.67;;
14799;SDS011;7491;57.750;11.970;2023-07-20T14:28:47;7.55;;;1.83;;
14799;SDS011;7491;57.750;11.970;2023-07-20T14:31:14;11.15;;;1.83;;
14799;SDS011;7491;57.750;11.970;2023-07-20T14:33:41;11.02;;;2.30;;
14799;SDS011;7491;57.750;11.970;2023-07-20T14:36:08;5.10;;;1.63;;
14799;SDS011;7491;57.750;11.970;2023-07-20T14:38:34;8.20;;;1.60;;
14799;SDS011;7491;57.750;11.970;2023-07-20T14:41:02;9.07;;;2.30;;
14799;SDS011;7491;57.750;11.970;2023-07-20T14:43:32;6.35;;;2.00;;
14799;SDS011;7491;57.750;11.970;2023-07-20T14:45:59;11.02;;;1.67;;
14799;SDS011;7491;57.750;11.970;2023-07-20T14:48:25;7.50;;;1.90;;
14799;SDS011;7491;57.750;11.970;2023-07-20T14:50:52;7.20;;;1.95;;
14799;SDS011;7491;57.750;11.970;2023-07-20T14:53:19;9.25;;;1.80;;
14799;SDS011;7491;57.750;11.970;2023-07-20T14:55:46;4.70;;;1.38;;
14799;SDS011;7491;57.750;11.970;2023-07-20T14:58:12;4.03;;;1.70;;
14799;SDS011;7491;57.750;11.970;2023-07-20T15:00:40;5.90;;;1.50;;